Cheb, Czech Republic

3:10 AM CET on March 02, 2015 (GMT +0100)
Stiftland | Change Station
CLOSE
Current Station
Personal Weather Station
Location: Tirschenreuth, BAVARIA
Elevation: 1680 ft
Nearby Weather Stations

Elev 1680 ft 49.88 °N, 12.34 °E | Updated 3 minutes ago

Mostly Cloudy
Mostly Cloudy
41.6 °F
Feels Like 36 °F
N
9.0
Wind Variable Wind from SSW
Gusts 16.0 mph

Today
High -- | Low -- °F
--% Chance of Precip.
Yesterday
High -- | Low -- °F
Precip. -- in
6:52 AM 5:53 PM
Waxing Gibbous, 88% visible
Pressure 29.56 in
Visibility 6.2 miles
Clouds Mostly Cloudy 1300 ft
Windchill 36 °F
Dew Point 41 °F
Humidity 98%
Rainfall 0.00 in
Snow Depth Not available.
UV 0.0 out of 12
Pollen Not available.
Air Quality Not available.
Flu Activity Not available.
METAR LKKV 020200Z VRB02KT 9999 BKN013 04/03 Q1001 R29///////

More Conditions Fewer Conditions

Pressure 29.56 in
Visibility 6.2 miles
Clouds Mostly Cloudy 1300 ft
Windchill 36 °F
Dew Point 41 °F
Humidity 98%
Rainfall 0.00 in
Snow Depth Not available.
UV 0.0 out of 12
Pollen Not available.
Air Quality Not available.
Flu Activity Not available.
METAR LKKV 020200Z VRB02KT 9999 BKN013 04/03 Q1001 R29///////

More Conditions Fewer Conditions

10-Day Weather Forecast

Almanac

Astronomy

Mar. 02, 2015 Rise Set
Actual Time
Civil Twilight
Nautical Twilight
Astronomical Twilight
Moon
Length of Visible Light
Length of Day
Tomorrow will be .
, % of the Moon is Illuminated

Today's Extremes

Country Highs Country Lows

Community

WunderPhotos

Upload Photos

1,801,683 photos uploaded!

WunderBlogs® & News

Nearby

Air Quality

  Air Quality AQ Index Pollutant
Not available.

Snow Depth

Station Depth Elevation

Earthquake Activity

City Distance Mag. Time & Date
Minimum magnitude displayed is 2.5.

Coastal Water Temperatures

Place Temperature

Nearby Weather Stations